sensor_id;sensor_type;location;lat;lon;timestamp;P1;durP1;ratioP1;P2;durP2;ratioP2
72569;SDS011;60594;50.204;8.844;2023-09-08T00:02:12;7.13;;;3.67;;
72569;SDS011;60594;50.204;8.844;2023-09-08T00:04:38;7.15;;;3.58;;
72569;SDS011;60594;50.204;8.844;2023-09-08T00:07:05;6.13;;;3.72;;
72569;SDS011;60594;50.204;8.844;2023-09-08T00:09:31;6.63;;;3.80;;
72569;SDS011;60594;50.204;8.844;2023-09-08T00:11:58;7.88;;;3.63;;
72569;SDS011;60594;50.204;8.844;2023-09-08T00:14:25;6.47;;;4.07;;
72569;SDS011;60594;50.204;8.844;2023-09-08T00:16:51;5.75;;;3.38;;
72569;SDS011;60594;50.204;8.844;2023-09-08T00:19:20;6.80;;;3.88;;
72569;SDS011;60594;50.204;8.844;2023-09-08T00:21:47;7.72;;;3.53;;
72569;SDS011;60594;50.204;8.844;2023-09-08T00:24:14;5.65;;;3.78;;
72569;SDS011;60594;50.204;8.844;2023-09-08T00:26:40;8.30;;;4.18;;
72569;SDS011;60594;50.204;8.844;2023-09-08T00:29:07;7.03;;;3.40;;
72569;SDS011;60594;50.204;8.844;2023-09-08T00:31:33;6.43;;;3.92;;
72569;SDS011;60594;50.204;8.844;2023-09-08T00:34:00;5.78;;;3.67;;
72569;SDS011;60594;50.204;8.844;2023-09-08T00:36:26;7.82;;;3.72;;
72569;SDS011;60594;50.204;8.844;2023-09-08T00:38:53;7.53;;;4.13;;
72569;SDS011;60594;50.204;8.844;2023-09-08T00:41:19;6.43;;;3.40;;
72569;SDS011;60594;50.204;8.844;2023-09-08T00:43:46;7.60;;;4.07;;
72569;SDS011;60594;50.204;8.844;2023-09-08T00:46:13;6.15;;;3.85;;
72569;SDS011;60594;50.204;8.844;2023-09-08T00:48:39;6.13;;;3.80;;
72569;SDS011;60594;50.204;8.844;2023-09-08T00:51:07;7.13;;;4.05;;
72569;SDS011;60594;50.204;8.844;2023-09-08T00:53:36;6.38;;;3.78;;
72569;SDS011;60594;50.204;8.844;2023-09-08T00:56:03;6.38;;;4.15;;
72569;SDS011;60594;50.204;8.844;2023-09-08T00:58:30;8.65;;;4.25;;
72569;SDS011;60594;50.204;8.844;2023-09-08T01:00:57;6.70;;;4.07;;
72569;SDS011;60594;50.204;8.844;2023-09-08T01:03:24;6.72;;;3.97;;
72569;SDS011;60594;50.204;8.844;2023-09-08T01:05:51;6.97;;;3.92;;
72569;SDS011;60594;50.204;8.844;2023-09-08T01:08:18;6.55;;;3.90;;
72569;SDS011;60594;50.204;8.844;2023-09-08T01:10:45;7.20;;;4.25;;
72569;SDS011;60594;50.204;8.844;2023-09-08T01:13:12;7.70;;;3.92;;
72569;SDS011;60594;50.204;8.844;2023-09-08T01:15:39;6.22;;;3.80;;
72569;SDS011;60594;50.204;8.844;2023-09-08T01:18:06;6.82;;;3.78;;
72569;SDS011;60594;50.204;8.844;2023-09-08T01:23:46;8.00;;;4.25;;
72569;SDS011;60594;50.204;8.844;2023-09-08T01:26:37;6.22;;;4.13;;
72569;SDS011;60594;50.204;8.844;2023-09-08T01:29:09;6.88;;;4.18;;
72569;SDS011;60594;50.204;8.844;2023-09-08T01:31:37;10.20;;;4.95;;
72569;SDS011;60594;50.204;8.844;2023-09-08T01:34:04;7.82;;;4.60;;
72569;SDS011;60594;50.204;8.844;2023-09-08T01:36:33;6.82;;;4.60;;
72569;SDS011;60594;50.204;8.844;2023-09-08T01:39:01;7.20;;;4.70;;
72569;SDS011;60594;50.204;8.844;2023-09-08T01:41:28;8.32;;;4.75;;
72569;SDS011;60594;50.204;8.844;2023-09-08T01:43:56;8.25;;;5.30;;
72569;SDS011;60594;50.204;8.844;2023-09-08T01:46:23;9.57;;;4.82;;
72569;SDS011;60594;50.204;8.844;2023-09-08T01:48:50;8.30;;;4.65;;
72569;SDS011;60594;50.204;8.844;2023-09-08T01:51:16;10.88;;;5.45;;
72569;SDS011;60594;50.204;8.844;2023-09-08T01:53:43;6.97;;;4.70;;
72569;SDS011;60594;50.204;8.844;2023-09-08T01:56:10;7.63;;;4.55;;
72569;SDS011;60594;50.204;8.844;2023-09-08T01:58:36;9.25;;;4.70;;
72569;SDS011;60594;50.204;8.844;2023-09-08T02:01:03;7.50;;;4.53;;
72569;SDS011;60594;50.204;8.844;2023-09-08T02:03:32;8.00;;;5.10;;
72569;SDS011;60594;50.204;8.844;2023-09-08T02:10:52;8.02;;;4.72;;
72569;SDS011;60594;50.204;8.844;2023-09-08T02:13:19;9.13;;;5.07;;
72569;SDS011;60594;50.204;8.844;2023-09-08T02:15:45;7.45;;;4.50;;
72569;SDS011;60594;50.204;8.844;2023-09-08T02:18:12;8.88;;;4.35;;
72569;SDS011;60594;50.204;8.844;2023-09-08T02:20:40;7.55;;;4.75;;
72569;SDS011;60594;50.204;8.844;2023-09-08T02:23:06;8.65;;;4.80;;
72569;SDS011;60594;50.204;8.844;2023-09-08T02:25:33;7.30;;;4.50;;
72569;SDS011;60594;50.204;8.844;2023-09-08T02:28:00;8.23;;;5.30;;
72569;SDS011;60594;50.204;8.844;2023-09-08T02:30:27;8.57;;;4.55;;
72569;SDS011;60594;50.204;8.844;2023-09-08T02:32:54;8.40;;;4.85;;
72569;SDS011;60594;50.204;8.844;2023-09-08T02:35:22;7.85;;;5.22;;
72569;SDS011;60594;50.204;8.844;2023-09-08T02:37:50;7.45;;;4.63;;
72569;SDS011;60594;50.204;8.844;2023-09-08T02:40:17;8.07;;;4.95;;
72569;SDS011;60594;50.204;8.844;2023-09-08T02:42:43;9.07;;;4.65;;
72569;SDS011;60594;50.204;8.844;2023-09-08T02:45:10;8.10;;;4.72;;
72569;SDS011;60594;50.204;8.844;2023-09-08T02:47:36;8.07;;;4.90;;
72569;SDS011;60594;50.204;8.844;2023-09-08T02:50:03;7.68;;;4.35;;
72569;SDS011;60594;50.204;8.844;2023-09-08T02:52:32;7.60;;;4.25;;
72569;SDS011;60594;50.204;8.844;2023-09-08T02:54:59;8.10;;;4.75;;
72569;SDS011;60594;50.204;8.844;2023-09-08T02:57:26;7.15;;;4.32;;
72569;SDS011;60594;50.204;8.844;2023-09-08T02:59:53;7.03;;;4.15;;
72569;SDS011;60594;50.204;8.844;2023-09-08T03:02:24;7.03;;;4.15;;
72569;SDS011;60594;50.204;8.844;2023-09-08T03:04:51;7.85;;;4.32;;
72569;SDS011;60594;50.204;8.844;2023-09-08T03:07:18;7.03;;;4.50;;
72569;SDS011;60594;50.204;8.844;2023-09-08T03:09:44;7.75;;;4.25;;
72569;SDS011;60594;50.204;8.844;2023-09-08T03:12:11;8.35;;;4.78;;
72569;SDS011;60594;50.204;8.844;2023-09-08T03:14:37;6.55;;;4.10;;
72569;SDS011;60594;50.204;8.844;2023-09-08T03:17:03;7.43;;;4.28;;
72569;SDS011;60594;50.204;8.844;2023-09-08T03:19:30;7.45;;;4.28;;
72569;SDS011;60594;50.204;8.844;2023-09-08T03:21:57;7.38;;;4.10;;
72569;SDS011;60594;50.204;8.844;2023-09-08T03:24:25;6.63;;;4.32;;
72569;SDS011;60594;50.204;8.844;2023-09-08T03:26:51;7.70;;;4.20;;
72569;SDS011;60594;50.204;8.844;2023-09-08T03:29:18;7.53;;;4.18;;
72569;SDS011;60594;50.204;8.844;2023-09-08T03:31:44;6.72;;;3.75;;
72569;SDS011;60594;50.204;8.844;2023-09-08T03:34:11;7.50;;;4.00;;
72569;SDS011;60594;50.204;8.844;2023-09-08T03:36:38;8.10;;;4.25;;
72569;SDS011;60594;50.204;8.844;2023-09-08T03:39:05;7.97;;;4.25;;
72569;SDS011;60594;50.204;8.844;2023-09-08T03:41:31;7.53;;;4.32;;
72569;SDS011;60594;50.204;8.844;2023-09-08T03:43:58;7.60;;;4.15;;
72569;SDS011;60594;50.204;8.844;2023-09-08T03:46:25;6.95;;;3.97;;
72569;SDS011;60594;50.204;8.844;2023-09-08T03:48:51;6.68;;;4.22;;
72569;SDS011;60594;50.204;8.844;2023-09-08T03:51:21;7.40;;;3.72;;
72569;SDS011;60594;50.204;8.844;2023-09-08T03:53:47;6.63;;;3.72;;
72569;SDS011;60594;50.204;8.844;2023-09-08T03:56:14;7.60;;;4.28;;
72569;SDS011;60594;50.204;8.844;2023-09-08T03:58:40;6.30;;;4.30;;
72569;SDS011;60594;50.204;8.844;2023-09-08T04:01:07;7.50;;;4.47;;
72569;SDS011;60594;50.204;8.844;2023-09-08T04:03:33;7.68;;;4.43;;
72569;SDS011;60594;50.204;8.844;2023-09-08T04:06:00;6.88;;;4.50;;
72569;SDS011;60594;50.204;8.844;2023-09-08T04:08:26;7.00;;;4.20;;
72569;SDS011;60594;50.204;8.844;2023-09-08T04:10:54;6.22;;;4.00;;
72569;SDS011;60594;50.204;8.844;2023-09-08T04:13:20;7.38;;;4.43;;
72569;SDS011;60594;50.204;8.844;2023-09-08T04:15:46;6.40;;;4.30;;
72569;SDS011;60594;50.204;8.844;2023-09-08T04:18:13;7.32;;;4.35;;
72569;SDS011;60594;50.204;8.844;2023-09-08T04:20:40;8.32;;;4.57;;
72569;SDS011;60594;50.204;8.844;2023-09-08T04:23:06;6.90;;;4.10;;
72569;SDS011;60594;50.204;8.844;2023-09-08T04:25:33;7.65;;;4.75;;
72569;SDS011;60594;50.204;8.844;2023-09-08T04:27:59;7.65;;;4.53;;
72569;SDS011;60594;50.204;8.844;2023-09-08T04:30:26;6.90;;;4.57;;
72569;SDS011;60594;50.204;8.844;2023-09-08T04:32:52;6.72;;;4.18;;
72569;SDS011;60594;50.204;8.844;2023-09-08T04:35:19;8.55;;;4.25;;
72569;SDS011;60594;50.204;8.844;2023-09-08T04:37:45;8.23;;;4.45;;
72569;SDS011;60594;50.204;8.844;2023-09-08T04:40:12;7.65;;;4.68;;
72569;SDS011;60594;50.204;8.844;2023-09-08T04:42:39;7.60;;;4.57;;
72569;SDS011;60594;50.204;8.844;2023-09-08T04:45:07;6.88;;;4.30;;
72569;SDS011;60594;50.204;8.844;2023-09-08T04:47:34;8.95;;;4.68;;
72569;SDS011;60594;50.204;8.844;2023-09-08T04:50:01;7.20;;;4.57;;
72569;SDS011;60594;50.204;8.844;2023-09-08T04:52:28;7.70;;;3.88;;
72569;SDS011;60594;50.204;8.844;2023-09-08T04:54:55;8.65;;;4.60;;
72569;SDS011;60594;50.204;8.844;2023-09-08T04:57:21;8.30;;;4.93;;
72569;SDS011;60594;50.204;8.844;2023-09-08T04:59:48;8.85;;;4.32;;
72569;SDS011;60594;50.204;8.844;2023-09-08T05:02:15;7.60;;;4.90;;
72569;SDS011;60594;50.204;8.844;2023-09-08T05:04:42;9.15;;;4.75;;
72569;SDS011;60594;50.204;8.844;2023-09-08T05:07:09;8.57;;;5.25;;
72569;SDS011;60594;50.204;8.844;2023-09-08T05:09:36;7.30;;;4.88;;
72569;SDS011;60594;50.204;8.844;2023-09-08T05:12:03;9.30;;;5.72;;
72569;SDS011;60594;50.204;8.844;2023-09-08T05:14:30;10.38;;;5.40;;
72569;SDS011;60594;50.204;8.844;2023-09-08T05:16:57;7.63;;;4.80;;
72569;SDS011;60594;50.204;8.844;2023-09-08T05:19:27;7.95;;;4.82;;
72569;SDS011;60594;50.204;8.844;2023-09-08T05:21:54;8.65;;;5.07;;
72569;SDS011;60594;50.204;8.844;2023-09-08T05:24:21;8.15;;;5.38;;
72569;SDS011;60594;50.204;8.844;2023-09-08T05:26:48;10.23;;;4.93;;
72569;SDS011;60594;50.204;8.844;2023-09-08T05:29:15;9.27;;;5.07;;
72569;SDS011;60594;50.204;8.844;2023-09-08T05:31:42;8.27;;;4.78;;
72569;SDS011;60594;50.204;8.844;2023-09-08T05:34:08;7.80;;;4.72;;
72569;SDS011;60594;50.204;8.844;2023-09-08T05:36:36;7.43;;;4.57;;
72569;SDS011;60594;50.204;8.844;2023-09-08T05:39:04;8.30;;;4.30;;
72569;SDS011;60594;50.204;8.844;2023-09-08T05:41:31;6.53;;;4.38;;
72569;SDS011;60594;50.204;8.844;2023-09-08T05:44:00;8.07;;;4.97;;
72569;SDS011;60594;50.204;8.844;2023-09-08T05:46:27;6.07;;;4.45;;
72569;SDS011;60594;50.204;8.844;2023-09-08T05:48:54;7.47;;;4.32;;
72569;SDS011;60594;50.204;8.844;2023-09-08T05:51:21;7.70;;;4.78;;
72569;SDS011;60594;50.204;8.844;2023-09-08T05:53:48;7.22;;;4.43;;
72569;SDS011;60594;50.204;8.844;2023-09-08T05:56:15;7.18;;;4.40;;
72569;SDS011;60594;50.204;8.844;2023-09-08T05:58:44;9.02;;;4.32;;
72569;SDS011;60594;50.204;8.844;2023-09-08T06:01:10;9.68;;;4.88;;
72569;SDS011;60594;50.204;8.844;2023-09-08T06:03:37;7.88;;;4.53;;
72569;SDS011;60594;50.204;8.844;2023-09-08T06:06:03;7.53;;;4.88;;
72569;SDS011;60594;50.204;8.844;2023-09-08T06:08:30;7.70;;;4.85;;
72569;SDS011;60594;50.204;8.844;2023-09-08T06:10:57;8.77;;;5.32;;
72569;SDS011;60594;50.204;8.844;2023-09-08T06:13:23;7.63;;;4.97;;
72569;SDS011;60594;50.204;8.844;2023-09-08T06:15:51;7.97;;;4.70;;
72569;SDS011;60594;50.204;8.844;2023-09-08T06:18:18;9.35;;;4.75;;
72569;SDS011;60594;50.204;8.844;2023-09-08T06:20:48;10.02;;;4.60;;
72569;SDS011;60594;50.204;8.844;2023-09-08T06:23:15;8.77;;;4.80;;
72569;SDS011;60594;50.204;8.844;2023-09-08T06:25:41;8.45;;;5.13;;
72569;SDS011;60594;50.204;8.844;2023-09-08T06:28:08;8.88;;;5.25;;
72569;SDS011;60594;50.204;8.844;2023-09-08T06:30:34;8.00;;;4.85;;
72569;SDS011;60594;50.204;8.844;2023-09-08T06:33:02;10.07;;;5.25;;
72569;SDS011;60594;50.204;8.844;2023-09-08T06:35:29;8.85;;;5.25;;
72569;SDS011;60594;50.204;8.844;2023-09-08T06:37:56;8.45;;;5.13;;
72569;SDS011;60594;50.204;8.844;2023-09-08T06:40:24;8.07;;;5.32;;
72569;SDS011;60594;50.204;8.844;2023-09-08T06:42:51;8.77;;;5.28;;
72569;SDS011;60594;50.204;8.844;2023-09-08T06:45:28;11.07;;;5.38;;
72569;SDS011;60594;50.204;8.844;2023-09-08T06:47:54;10.18;;;5.13;;
72569;SDS011;60594;50.204;8.844;2023-09-08T06:50:22;7.82;;;4.95;;
72569;SDS011;60594;50.204;8.844;2023-09-08T06:52:49;9.25;;;5.57;;
72569;SDS011;60594;50.204;8.844;2023-09-08T06:55:16;10.00;;;5.53;;
72569;SDS011;60594;50.204;8.844;2023-09-08T06:57:44;7.78;;;5.15;;
72569;SDS011;60594;50.204;8.844;2023-09-08T07:00:11;7.50;;;5.15;;
72569;SDS011;60594;50.204;8.844;2023-09-08T07:02:39;7.95;;;5.07;;
72569;SDS011;60594;50.204;8.844;2023-09-08T07:05:05;8.95;;;5.28;;
72569;SDS011;60594;50.204;8.844;2023-09-08T07:07:35;10.23;;;5.65;;
72569;SDS011;60594;50.204;8.844;2023-09-08T07:10:05;8.50;;;4.78;;
72569;SDS011;60594;50.204;8.844;2023-09-08T07:12:32;7.68;;;5.15;;
72569;SDS011;60594;50.204;8.844;2023-09-08T07:14:58;9.43;;;5.05;;
72569;SDS011;60594;50.204;8.844;2023-09-08T07:17:26;8.90;;;5.25;;
72569;SDS011;60594;50.204;8.844;2023-09-08T07:19:53;8.57;;;4.97;;
72569;SDS011;60594;50.204;8.844;2023-09-08T07:22:21;9.32;;;5.63;;
72569;SDS011;60594;50.204;8.844;2023-09-08T07:24:47;9.48;;;5.32;;
72569;SDS011;60594;50.204;8.844;2023-09-08T07:27:16;11.32;;;5.72;;
72569;SDS011;60594;50.204;8.844;2023-09-08T07:29:44;9.27;;;5.47;;
72569;SDS011;60594;50.204;8.844;2023-09-08T07:32:11;9.05;;;5.07;;
72569;SDS011;60594;50.204;8.844;2023-09-08T07:34:38;8.48;;;4.55;;
72569;SDS011;60594;50.204;8.844;2023-09-08T07:37:04;10.52;;;4.80;;
72569;SDS011;60594;50.204;8.844;2023-09-08T07:39:31;7.95;;;5.35;;
72569;SDS011;60594;50.204;8.844;2023-09-08T07:41:59;7.53;;;4.43;;
72569;SDS011;60594;50.204;8.844;2023-09-08T07:44:26;7.22;;;4.65;;
72569;SDS011;60594;50.204;8.844;2023-09-08T07:46:52;6.32;;;4.18;;
72569;SDS011;60594;50.204;8.844;2023-09-08T07:49:21;7.55;;;4.40;;
72569;SDS011;60594;50.204;8.844;2023-09-08T07:51:47;6.93;;;4.35;;
72569;SDS011;60594;50.204;8.844;2023-09-08T07:54:14;7.18;;;4.95;;
72569;SDS011;60594;50.204;8.844;2023-09-08T07:56:41;7.43;;;3.92;;
72569;SDS011;60594;50.204;8.844;2023-09-08T07:59:07;8.88;;;5.18;;
72569;SDS011;60594;50.204;8.844;2023-09-08T08:01:34;7.68;;;4.63;;
72569;SDS011;60594;50.204;8.844;2023-09-08T08:04:00;7.28;;;5.00;;
72569;SDS011;60594;50.204;8.844;2023-09-08T08:06:29;7.82;;;4.47;;
72569;SDS011;60594;50.204;8.844;2023-09-08T08:08:56;6.90;;;4.50;;
72569;SDS011;60594;50.204;8.844;2023-09-08T08:11:22;8.05;;;4.55;;
72569;SDS011;60594;50.204;8.844;2023-09-08T08:13:49;6.72;;;4.25;;
72569;SDS011;60594;50.204;8.844;2023-09-08T08:16:15;7.70;;;4.57;;
72569;SDS011;60594;50.204;8.844;2023-09-08T08:18:42;6.93;;;4.50;;
72569;SDS011;60594;50.204;8.844;2023-09-08T08:21:08;6.97;;;3.97;;
72569;SDS011;60594;50.204;8.844;2023-09-08T08:23:35;6.88;;;4.18;;
72569;SDS011;60594;50.204;8.844;2023-09-08T08:26:02;10.10;;;4.45;;
72569;SDS011;60594;50.204;8.844;2023-09-08T08:28:29;6.53;;;4.25;;
72569;SDS011;60594;50.204;8.844;2023-09-08T08:30:56;7.65;;;4.50;;
72569;SDS011;60594;50.204;8.844;2023-09-08T08:33:22;8.60;;;5.00;;
72569;SDS011;60594;50.204;8.844;2023-09-08T08:35:52;6.57;;;4.32;;
72569;SDS011;60594;50.204;8.844;2023-09-08T08:38:19;6.10;;;4.10;;
72569;SDS011;60594;50.204;8.844;2023-09-08T08:40:46;7.93;;;4.68;;
72569;SDS011;60594;50.204;8.844;2023-09-08T08:43:12;9.15;;;4.10;;
72569;SDS011;60594;50.204;8.844;2023-09-08T08:45:41;5.68;;;3.92;;
72569;SDS011;60594;50.204;8.844;2023-09-08T08:48:09;6.47;;;4.25;;
72569;SDS011;60594;50.204;8.844;2023-09-08T08:50:37;7.18;;;3.88;;
72569;SDS011;60594;50.204;8.844;2023-09-08T08:53:04;7.32;;;4.10;;
72569;SDS011;60594;50.204;8.844;2023-09-08T08:55:32;7.50;;;4.38;;
72569;SDS011;60594;50.204;8.844;2023-09-08T08:58:03;7.15;;;3.97;;
72569;SDS011;60594;50.204;8.844;2023-09-08T09:00:35;6.63;;;4.18;;
72569;SDS011;60594;50.204;8.844;2023-09-08T09:03:05;5.97;;;4.00;;
72569;SDS011;60594;50.204;8.844;2023-09-08T09:05:32;7.25;;;4.43;;
72569;SDS011;60594;50.204;8.844;2023-09-08T09:08:02;7.85;;;4.22;;
72569;SDS011;60594;50.204;8.844;2023-09-08T09:10:31;6.13;;;4.03;;
72569;SDS011;60594;50.204;8.844;2023-09-08T09:12:57;6.25;;;4.28;;
72569;SDS011;60594;50.204;8.844;2023-09-08T09:15:28;8.10;;;4.53;;
72569;SDS011;60594;50.204;8.844;2023-09-08T09:18:02;7.30;;;4.18;;
72569;SDS011;60594;50.204;8.844;2023-09-08T09:20:31;6.28;;;4.22;;
72569;SDS011;60594;50.204;8.844;2023-09-08T09:22:58;8.40;;;4.07;;
72569;SDS011;60594;50.204;8.844;2023-09-08T09:25:25;8.35;;;4.82;;
72569;SDS011;60594;50.204;8.844;2023-09-08T09:27:54;7.53;;;4.15;;
72569;SDS011;60594;50.204;8.844;2023-09-08T09:30:22;7.13;;;4.60;;
72569;SDS011;60594;50.204;8.844;2023-09-08T09:32:58;7.18;;;4.18;;
72569;SDS011;60594;50.204;8.844;2023-09-08T09:35:41;8.07;;;4.38;;
72569;SDS011;60594;50.204;8.844;2023-09-08T09:38:09;8.63;;;4.18;;
72569;SDS011;60594;50.204;8.844;2023-09-08T09:40:36;8.13;;;4.75;;
72569;SDS011;60594;50.204;8.844;2023-09-08T09:43:04;7.13;;;4.75;;
72569;SDS011;60594;50.204;8.844;2023-09-08T09:45:33;8.65;;;4.20;;
72569;SDS011;60594;50.204;8.844;2023-09-08T09:48:01;7.38;;;4.30;;
72569;SDS011;60594;50.204;8.844;2023-09-08T09:50:29;7.53;;;4.95;;
72569;SDS011;60594;50.204;8.844;2023-09-08T09:52:57;7.68;;;4.57;;
72569;SDS011;60594;50.204;8.844;2023-09-08T09:55:26;11.48;;;4.43;;
72569;SDS011;60594;50.204;8.844;2023-09-08T09:57:57;6.15;;;4.30;;
72569;SDS011;60594;50.204;8.844;2023-09-08T10:00:26;8.07;;;4.75;;
72569;SDS011;60594;50.204;8.844;2023-09-08T10:02:54;7.15;;;4.80;;
72569;SDS011;60594;50.204;8.844;2023-09-08T10:05:25;8.48;;;4.95;;
72569;SDS011;60594;50.204;8.844;2023-09-08T10:07:52;6.72;;;4.25;;
72569;SDS011;60594;50.204;8.844;2023-09-08T10:10:20;6.38;;;4.35;;
72569;SDS011;60594;50.204;8.844;2023-09-08T10:12:57;6.18;;;3.95;;
72569;SDS011;60594;50.204;8.844;2023-09-08T10:15:33;6.97;;;3.90;;
72569;SDS011;60594;50.204;8.844;2023-09-08T10:17:59;6.72;;;4.45;;
72569;SDS011;60594;50.204;8.844;2023-09-08T10:20:30;6.13;;;4.38;;
72569;SDS011;60594;50.204;8.844;2023-09-08T10:23:04;6.20;;;4.45;;
72569;SDS011;60594;50.204;8.844;2023-09-08T10:25:37;6.00;;;4.20;;
72569;SDS011;60594;50.204;8.844;2023-09-08T10:28:09;6.25;;;4.05;;
72569;SDS011;60594;50.204;8.844;2023-09-08T10:30:36;6.97;;;4.30;;
72569;SDS011;60594;50.204;8.844;2023-09-08T10:33:03;8.23;;;4.47;;
72569;SDS011;60594;50.204;8.844;2023-09-08T10:35:31;6.63;;;4.20;;
72569;SDS011;60594;50.204;8.844;2023-09-08T10:40:53;7.10;;;4.28;;
72569;SDS011;60594;50.204;8.844;2023-09-08T10:43:40;6.18;;;3.92;;
72569;SDS011;60594;50.204;8.844;2023-09-08T10:46:10;8.50;;;4.30;;
72569;SDS011;60594;50.204;8.844;2023-09-08T10:48:41;6.72;;;4.28;;
72569;SDS011;60594;50.204;8.844;2023-09-08T10:51:27;5.70;;;3.35;;
72569;SDS011;60594;50.204;8.844;2023-09-08T10:53:54;5.78;;;3.47;;
72569;SDS011;60594;50.204;8.844;2023-09-08T10:56:21;6.07;;;3.63;;
72569;SDS011;60594;50.204;8.844;2023-09-08T10:58:53;6.03;;;3.35;;
72569;SDS011;60594;50.204;8.844;2023-09-08T11:01:20;5.97;;;3.55;;
72569;SDS011;60594;50.204;8.844;2023-09-08T11:03:53;6.13;;;4.30;;
72569;SDS011;60594;50.204;8.844;2023-09-08T11:06:20;6.05;;;3.90;;
72569;SDS011;60594;50.204;8.844;2023-09-08T11:08:56;5.13;;;3.55;;
72569;SDS011;60594;50.204;8.844;2023-09-08T11:11:33;6.18;;;4.32;;
72569;SDS011;60594;50.204;8.844;2023-09-08T11:13:59;7.18;;;4.18;;
72569;SDS011;60594;50.204;8.844;2023-09-08T11:16:26;5.82;;;3.60;;
72569;SDS011;60594;50.204;8.844;2023-09-08T11:18:55;5.63;;;3.42;;
72569;SDS011;60594;50.204;8.844;2023-09-08T11:21:22;6.07;;;3.88;;
72569;SDS011;60594;50.204;8.844;2023-09-08T11:23:48;5.93;;;3.50;;
72569;SDS011;60594;50.204;8.844;2023-09-08T11:26:15;5.32;;;3.80;;
72569;SDS011;60594;50.204;8.844;2023-09-08T11:28:43;5.68;;;3.40;;
72569;SDS011;60594;50.204;8.844;2023-09-08T11:31:11;6.18;;;3.80;;
72569;SDS011;60594;50.204;8.844;2023-09-08T11:33:38;5.70;;;3.97;;
72569;SDS011;60594;50.204;8.844;2023-09-08T11:36:12;5.40;;;3.50;;
72569;SDS011;60594;50.204;8.844;2023-09-08T11:38:43;6.38;;;3.90;;
72569;SDS011;60594;50.204;8.844;2023-09-08T11:41:11;5.35;;;3.42;;
72569;SDS011;60594;50.204;8.844;2023-09-08T11:43:38;5.45;;;3.30;;
72569;SDS011;60594;50.204;8.844;2023-09-08T11:46:05;6.07;;;3.60;;
72569;SDS011;60594;50.204;8.844;2023-09-08T11:48:32;5.38;;;3.92;;
72569;SDS011;60594;50.204;8.844;2023-09-08T11:50:59;7.07;;;3.38;;
72569;SDS011;60594;50.204;8.844;2023-09-08T11:53:25;6.03;;;3.70;;
72569;SDS011;60594;50.204;8.844;2023-09-08T11:55:53;6.90;;;3.55;;
72569;SDS011;60594;50.204;8.844;2023-09-08T11:58:19;6.15;;;3.88;;
72569;SDS011;60594;50.204;8.844;2023-09-08T12:00:47;6.70;;;3.60;;
72569;SDS011;60594;50.204;8.844;2023-09-08T12:03:15;5.40;;;3.50;;
72569;SDS011;60594;50.204;8.844;2023-09-08T12:05:44;7.13;;;3.60;;
72569;SDS011;60594;50.204;8.844;2023-09-08T12:08:16;5.43;;;3.92;;
72569;SDS011;60594;50.204;8.844;2023-09-08T12:10:43;6.20;;;3.63;;
72569;SDS011;60594;50.204;8.844;2023-09-08T12:13:09;6.97;;;3.60;;
72569;SDS011;60594;50.204;8.844;2023-09-08T12:15:37;5.20;;;3.60;;
72569;SDS011;60594;50.204;8.844;2023-09-08T12:18:07;6.38;;;3.78;;
72569;SDS011;60594;50.204;8.844;2023-09-08T12:20:35;5.25;;;3.85;;
72569;SDS011;60594;50.204;8.844;2023-09-08T12:23:04;5.65;;;3.60;;
72569;SDS011;60594;50.204;8.844;2023-09-08T12:25:47;6.07;;;3.70;;
72569;SDS011;60594;50.204;8.844;2023-09-08T12:28:19;5.78;;;4.07;;
72569;SDS011;60594;50.204;8.844;2023-09-08T12:30:48;5.43;;;3.72;;
72569;SDS011;60594;50.204;8.844;2023-09-08T12:33:15;5.93;;;3.70;;
72569;SDS011;60594;50.204;8.844;2023-09-08T12:35:42;5.00;;;3.58;;
72569;SDS011;60594;50.204;8.844;2023-09-08T12:38:10;5.40;;;3.67;;
72569;SDS011;60594;50.204;8.844;2023-09-08T12:40:37;6.20;;;3.38;;
72569;SDS011;60594;50.204;8.844;2023-09-08T12:43:04;6.18;;;3.42;;
72569;SDS011;60594;50.204;8.844;2023-09-08T12:45:31;5.20;;;3.72;;
72569;SDS011;60594;50.204;8.844;2023-09-08T12:47:58;5.72;;;3.58;;
72569;SDS011;60594;50.204;8.844;2023-09-08T12:50:28;5.07;;;3.63;;
72569;SDS011;60594;50.204;8.844;2023-09-08T12:52:57;6.80;;;4.18;;
72569;SDS011;60594;50.204;8.844;2023-09-08T12:55:24;6.82;;;3.95;;
72569;SDS011;60594;50.204;8.844;2023-09-08T12:57:51;6.07;;;3.75;;
72569;SDS011;60594;50.204;8.844;2023-09-08T13:00:21;6.05;;;3.30;;
72569;SDS011;60594;50.204;8.844;2023-09-08T13:02:51;5.45;;;3.65;;
72569;SDS011;60594;50.204;8.844;2023-09-08T13:05:18;6.90;;;4.00;;
72569;SDS011;60594;50.204;8.844;2023-09-08T13:07:45;5.63;;;3.75;;
72569;SDS011;60594;50.204;8.844;2023-09-08T13:10:11;5.68;;;3.60;;
72569;SDS011;60594;50.204;8.844;2023-09-08T13:12:38;5.20;;;3.10;;
72569;SDS011;60594;50.204;8.844;2023-09-08T13:15:05;5.60;;;3.78;;
72569;SDS011;60594;50.204;8.844;2023-09-08T13:17:32;5.50;;;3.40;;
72569;SDS011;60594;50.204;8.844;2023-09-08T13:19:58;6.07;;;3.95;;
72569;SDS011;60594;50.204;8.844;2023-09-08T13:22:25;5.95;;;3.65;;
72569;SDS011;60594;50.204;8.844;2023-09-08T13:24:52;5.28;;;3.78;;
72569;SDS011;60594;50.204;8.844;2023-09-08T13:27:18;5.22;;;3.50;;
72569;SDS011;60594;50.204;8.844;2023-09-08T13:29:45;5.05;;;3.20;;
72569;SDS011;60594;50.204;8.844;2023-09-08T13:32:11;5.97;;;3.67;;
72569;SDS011;60594;50.204;8.844;2023-09-08T13:34:38;5.93;;;3.47;;
72569;SDS011;60594;50.204;8.844;2023-09-08T13:37:05;6.53;;;4.10;;
72569;SDS011;60594;50.204;8.844;2023-09-08T13:39:32;6.60;;;3.85;;
72569;SDS011;60594;50.204;8.844;2023-09-08T13:41:59;6.00;;;3.78;;
72569;SDS011;60594;50.204;8.844;2023-09-08T13:44:26;5.50;;;3.55;;
72569;SDS011;60594;50.204;8.844;2023-09-08T13:46:53;5.70;;;3.50;;
72569;SDS011;60594;50.204;8.844;2023-09-08T13:49:20;6.05;;;3.85;;
72569;SDS011;60594;50.204;8.844;2023-09-08T13:51:48;6.55;;;4.10;;
72569;SDS011;60594;50.204;8.844;2023-09-08T13:54:20;5.78;;;3.90;;
72569;SDS011;60594;50.204;8.844;2023-09-08T13:56:46;5.55;;;3.88;;
72569;SDS011;60594;50.204;8.844;2023-09-08T13:59:25;6.50;;;3.95;;
72569;SDS011;60594;50.204;8.844;2023-09-08T14:01:52;5.47;;;3.70;;
72569;SDS011;60594;50.204;8.844;2023-09-08T14:04:20;6.45;;;3.83;;
72569;SDS011;60594;50.204;8.844;2023-09-08T14:06:46;5.60;;;3.78;;
72569;SDS011;60594;50.204;8.844;2023-09-08T14:09:13;6.45;;;3.75;;
72569;SDS011;60594;50.204;8.844;2023-09-08T14:11:40;5.10;;;3.63;;
72569;SDS011;60594;50.204;8.844;2023-09-08T14:14:07;5.80;;;3.72;;
72569;SDS011;60594;50.204;8.844;2023-09-08T14:16:34;5.63;;;3.70;;
72569;SDS011;60594;50.204;8.844;2023-09-08T14:21:27;6.95;;;3.65;;
72569;SDS011;60594;50.204;8.844;2023-09-08T14:23:54;5.55;;;3.65;;
72569;SDS011;60594;50.204;8.844;2023-09-08T14:26:20;5.65;;;4.10;;
72569;SDS011;60594;50.204;8.844;2023-09-08T14:28:47;7.30;;;3.88;;
72569;SDS011;60594;50.204;8.844;2023-09-08T14:31:13;6.45;;;3.83;;
72569;SDS011;60594;50.204;8.844;2023-09-08T14:33:40;5.18;;;3.65;;
72569;SDS011;60594;50.204;8.844;2023-09-08T14:36:07;5.90;;;3.58;;
72569;SDS011;60594;50.204;8.844;2023-09-08T14:38:34;5.30;;;3.63;;
72569;SDS011;60594;50.204;8.844;2023-09-08T14:41:01;6.00;;;3.88;;
72569;SDS011;60594;50.204;8.844;2023-09-08T14:43:28;5.38;;;3.45;;
72569;SDS011;60594;50.204;8.844;2023-09-08T14:48:25;6.10;;;3.50;;
72569;SDS011;60594;50.204;8.844;2023-09-08T14:50:51;5.80;;;3.80;;
72569;SDS011;60594;50.204;8.844;2023-09-08T14:53:18;6.28;;;3.90;;
72569;SDS011;60594;50.204;8.844;2023-09-08T14:55:45;5.85;;;3.65;;
72569;SDS011;60594;50.204;8.844;2023-09-08T14:58:15;5.53;;;3.67;;
72569;SDS011;60594;50.204;8.844;2023-09-08T15:00:42;5.57;;;3.72;;
72569;SDS011;60594;50.204;8.844;2023-09-08T15:03:10;7.35;;;3.83;;
72569;SDS011;60594;50.204;8.844;2023-09-08T15:05:37;5.95;;;4.10;;
72569;SDS011;60594;50.204;8.844;2023-09-08T15:08:04;7.15;;;4.20;;